sensor_id;sensor_type;location;lat;lon;timestamp;P1;durP1;ratioP1;P2;durP2;ratioP2
7941;SDS011;4016;50.758;7.150;2022-08-01T00:03:07;2.33;;;2.13;;
7941;SDS011;4016;50.758;7.150;2022-08-01T00:08:07;2.00;;;1.90;;
7941;SDS011;4016;50.758;7.150;2022-08-01T00:13:08;1.83;;;1.73;;
7941;SDS011;4016;50.758;7.150;2022-08-01T00:18:08;2.15;;;1.92;;
7941;SDS011;4016;50.758;7.150;2022-08-01T00:23:09;1.88;;;1.77;;
7941;SDS011;4016;50.758;7.150;2022-08-01T00:28:09;2.42;;;2.22;;
7941;SDS011;4016;50.758;7.150;2022-08-01T00:33:10;1.95;;;1.85;;
7941;SDS011;4016;50.758;7.150;2022-08-01T00:38:10;2.08;;;1.98;;
7941;SDS011;4016;50.758;7.150;2022-08-01T00:43:11;1.98;;;1.88;;
7941;SDS011;4016;50.758;7.150;2022-08-01T00:48:11;1.70;;;1.60;;
7941;SDS011;4016;50.758;7.150;2022-08-01T00:53:12;2.25;;;2.05;;
7941;SDS011;4016;50.758;7.150;2022-08-01T00:58:12;2.85;;;2.25;;
7941;SDS011;4016;50.758;7.150;2022-08-01T01:03:13;2.13;;;1.92;;
7941;SDS011;4016;50.758;7.150;2022-08-01T01:08:14;2.17;;;2.08;;
7941;SDS011;4016;50.758;7.150;2022-08-01T01:13:32;1.98;;;1.88;;
7941;SDS011;4016;50.758;7.150;2022-08-01T01:18:38;2.08;;;1.98;;
7941;SDS011;4016;50.758;7.150;2022-08-01T01:34:35;2.05;;;1.92;;
7941;SDS011;4016;50.758;7.150;2022-08-01T01:39:37;2.30;;;2.10;;
7941;SDS011;4016;50.758;7.150;2022-08-01T01:44:40;2.67;;;2.47;;
7941;SDS011;4016;50.758;7.150;2022-08-01T01:49:46;2.22;;;2.03;;
7941;SDS011;4016;50.758;7.150;2022-08-01T01:54:48;2.00;;;1.90;;
7941;SDS011;4016;50.758;7.150;2022-08-01T01:59:51;2.40;;;2.30;;
7941;SDS011;4016;50.758;7.150;2022-08-01T02:04:53;2.47;;;2.30;;
7941;SDS011;4016;50.758;7.150;2022-08-01T02:09:55;3.42;;;2.17;;
7941;SDS011;4016;50.758;7.150;2022-08-01T02:14:57;2.30;;;2.10;;
7941;SDS011;4016;50.758;7.150;2022-08-01T02:19:58;2.30;;;2.10;;
7941;SDS011;4016;50.758;7.150;2022-08-01T02:25:03;2.95;;;2.65;;
7941;SDS011;4016;50.758;7.150;2022-08-01T02:30:10;2.25;;;2.15;;
7941;SDS011;4016;50.758;7.150;2022-08-01T02:35:25;2.60;;;2.33;;
7941;SDS011;4016;50.758;7.150;2022-08-01T02:40:28;2.70;;;2.50;;
7941;SDS011;4016;50.758;7.150;2022-08-01T02:45:31;2.53;;;2.33;;
7941;SDS011;4016;50.758;7.150;2022-08-01T02:50:34;2.50;;;2.30;;
7941;SDS011;4016;50.758;7.150;2022-08-01T02:55:40;2.33;;;2.13;;
7941;SDS011;4016;50.758;7.150;2022-08-01T03:00:42;3.88;;;2.47;;
7941;SDS011;4016;50.758;7.150;2022-08-01T03:05:44;2.42;;;2.22;;
7941;SDS011;4016;50.758;7.150;2022-08-01T03:10:45;2.65;;;2.45;;
7941;SDS011;4016;50.758;7.150;2022-08-01T03:15:48;2.53;;;2.20;;
7941;SDS011;4016;50.758;7.150;2022-08-01T03:20:50;3.08;;;2.78;;
7941;SDS011;4016;50.758;7.150;2022-08-01T03:25:53;2.55;;;2.38;;
7941;SDS011;4016;50.758;7.150;2022-08-01T03:30:54;2.42;;;2.30;;
7941;SDS011;4016;50.758;7.150;2022-08-01T03:35:55;2.80;;;2.60;;
7941;SDS011;4016;50.758;7.150;2022-08-01T03:40:59;2.38;;;2.15;;
7941;SDS011;4016;50.758;7.150;2022-08-01T03:46:06;2.72;;;2.35;;
7941;SDS011;4016;50.758;7.150;2022-08-01T03:51:09;2.28;;;2.08;;
7941;SDS011;4016;50.758;7.150;2022-08-01T03:56:12;2.65;;;2.45;;
7941;SDS011;4016;50.758;7.150;2022-08-01T04:01:16;2.92;;;2.72;;
7941;SDS011;4016;50.758;7.150;2022-08-01T04:06:17;3.40;;;2.92;;
7941;SDS011;4016;50.758;7.150;2022-08-01T04:11:18;2.90;;;2.70;;
7941;SDS011;4016;50.758;7.150;2022-08-01T04:16:18;2.83;;;2.63;;
7941;SDS011;4016;50.758;7.150;2022-08-01T04:21:23;2.80;;;2.60;;
7941;SDS011;4016;50.758;7.150;2022-08-01T04:26:27;2.97;;;2.65;;
7941;SDS011;4016;50.758;7.150;2022-08-01T04:31:30;3.03;;;2.80;;
7941;SDS011;4016;50.758;7.150;2022-08-01T04:36:32;2.90;;;2.70;;
7941;SDS011;4016;50.758;7.150;2022-08-01T04:41:34;3.58;;;3.10;;
7941;SDS011;4016;50.758;7.150;2022-08-01T04:46:37;3.10;;;2.58;;
7941;SDS011;4016;50.758;7.150;2022-08-01T04:51:49;2.60;;;2.40;;
7941;SDS011;4016;50.758;7.150;2022-08-01T04:56:51;3.20;;;2.95;;
7941;SDS011;4016;50.758;7.150;2022-08-01T05:01:53;3.63;;;2.95;;
7941;SDS011;4016;50.758;7.150;2022-08-01T05:06:53;3.65;;;3.30;;
7941;SDS011;4016;50.758;7.150;2022-08-01T05:11:54;3.75;;;3.38;;
7941;SDS011;4016;50.758;7.150;2022-08-01T05:16:54;4.97;;;3.10;;
7941;SDS011;4016;50.758;7.150;2022-08-01T05:21:55;4.55;;;3.50;;
7941;SDS011;4016;50.758;7.150;2022-08-01T05:26:56;4.90;;;4.03;;
7941;SDS011;4016;50.758;7.150;2022-08-01T05:31:57;4.38;;;3.42;;
7941;SDS011;4016;50.758;7.150;2022-08-01T05:36:59;6.22;;;4.07;;
7941;SDS011;4016;50.758;7.150;2022-08-01T05:41:59;4.22;;;3.83;;
7941;SDS011;4016;50.758;7.150;2022-08-01T05:46:59;4.70;;;3.95;;
7941;SDS011;4016;50.758;7.150;2022-08-01T05:52:00;7.80;;;4.55;;
7941;SDS011;4016;50.758;7.150;2022-08-01T05:57:01;5.03;;;3.85;;
7941;SDS011;4016;50.758;7.150;2022-08-01T06:02:02;5.15;;;4.65;;
7941;SDS011;4016;50.758;7.150;2022-08-01T06:07:02;4.70;;;4.07;;
7941;SDS011;4016;50.758;7.150;2022-08-01T06:12:03;7.57;;;4.72;;
7941;SDS011;4016;50.758;7.150;2022-08-01T06:17:04;4.35;;;3.95;;
7941;SDS011;4016;50.758;7.150;2022-08-01T06:22:04;4.88;;;4.38;;
7941;SDS011;4016;50.758;7.150;2022-08-01T06:27:05;4.72;;;3.92;;
7941;SDS011;4016;50.758;7.150;2022-08-01T06:32:05;3.65;;;3.33;;
7941;SDS011;4016;50.758;7.150;2022-08-01T06:37:06;6.53;;;4.05;;
7941;SDS011;4016;50.758;7.150;2022-08-01T06:42:06;4.07;;;3.67;;
7941;SDS011;4016;50.758;7.150;2022-08-01T06:47:07;4.22;;;3.90;;
7941;SDS011;4016;50.758;7.150;2022-08-01T06:52:07;4.22;;;3.80;;
7941;SDS011;4016;50.758;7.150;2022-08-01T06:57:07;5.03;;;4.43;;
7941;SDS011;4016;50.758;7.150;2022-08-01T07:02:08;5.38;;;4.68;;
7941;SDS011;4016;50.758;7.150;2022-08-01T07:07:08;4.80;;;4.30;;
7941;SDS011;4016;50.758;7.150;2022-08-01T07:12:09;5.72;;;5.22;;
7941;SDS011;4016;50.758;7.150;2022-08-01T07:17:09;7.57;;;5.53;;
7941;SDS011;4016;50.758;7.150;2022-08-01T07:22:10;6.88;;;6.18;;
7941;SDS011;4016;50.758;7.150;2022-08-01T07:27:10;7.32;;;5.97;;
7941;SDS011;4016;50.758;7.150;2022-08-01T07:32:10;8.27;;;6.63;;
7941;SDS011;4016;50.758;7.150;2022-08-01T07:37:11;6.47;;;5.53;;
7941;SDS011;4016;50.758;7.150;2022-08-01T07:42:11;5.30;;;4.80;;
7941;SDS011;4016;50.758;7.150;2022-08-01T07:47:12;6.57;;;5.63;;
7941;SDS011;4016;50.758;7.150;2022-08-01T07:52:12;7.90;;;5.88;;
7941;SDS011;4016;50.758;7.150;2022-08-01T07:57:12;6.07;;;5.22;;
7941;SDS011;4016;50.758;7.150;2022-08-01T08:02:13;5.88;;;5.28;;
7941;SDS011;4016;50.758;7.150;2022-08-01T08:07:13;5.18;;;4.68;;
7941;SDS011;4016;50.758;7.150;2022-08-01T08:12:13;4.82;;;4.28;;
7941;SDS011;4016;50.758;7.150;2022-08-01T08:17:14;7.32;;;5.18;;
7941;SDS011;4016;50.758;7.150;2022-08-01T08:22:14;6.47;;;5.13;;
7941;SDS011;4016;50.758;7.150;2022-08-01T08:27:14;5.90;;;4.78;;
7941;SDS011;4016;50.758;7.150;2022-08-01T08:32:15;7.35;;;4.57;;
7941;SDS011;4016;50.758;7.150;2022-08-01T08:37:16;10.18;;;4.88;;
7941;SDS011;4016;50.758;7.150;2022-08-01T08:42:17;6.78;;;5.35;;
7941;SDS011;4016;50.758;7.150;2022-08-01T08:47:18;5.05;;;4.53;;
7941;SDS011;4016;50.758;7.150;2022-08-01T08:52:19;6.07;;;4.60;;
7941;SDS011;4016;50.758;7.150;2022-08-01T08:57:21;5.22;;;4.72;;
7941;SDS011;4016;50.758;7.150;2022-08-01T09:02:21;5.75;;;5.25;;
7941;SDS011;4016;50.758;7.150;2022-08-01T09:07:22;5.63;;;5.10;;
7941;SDS011;4016;50.758;7.150;2022-08-01T09:12:25;7.50;;;5.32;;
7941;SDS011;4016;50.758;7.150;2022-08-01T09:17:25;6.13;;;5.13;;
7941;SDS011;4016;50.758;7.150;2022-08-01T09:22:26;6.60;;;4.60;;
7941;SDS011;4016;50.758;7.150;2022-08-01T09:27:33;6.03;;;4.30;;
7941;SDS011;4016;50.758;7.150;2022-08-01T09:32:33;4.50;;;4.10;;
7941;SDS011;4016;50.758;7.150;2022-08-01T09:37:34;4.63;;;3.97;;
7941;SDS011;4016;50.758;7.150;2022-08-01T09:42:34;5.90;;;3.90;;
7941;SDS011;4016;50.758;7.150;2022-08-01T09:47:38;4.77;;;4.17;;
7941;SDS011;4016;50.758;7.150;2022-08-01T09:52:39;6.70;;;4.90;;
7941;SDS011;4016;50.758;7.150;2022-08-01T09:57:40;4.93;;;3.70;;
7941;SDS011;4016;50.758;7.150;2022-08-01T10:02:54;4.93;;;4.05;;
7941;SDS011;4016;50.758;7.150;2022-08-01T10:07:56;4.40;;;3.97;;
7941;SDS011;4016;50.758;7.150;2022-08-01T10:13:01;4.40;;;3.80;;
7941;SDS011;4016;50.758;7.150;2022-08-01T10:18:04;4.40;;;4.00;;
7941;SDS011;4016;50.758;7.150;2022-08-01T10:23:06;4.57;;;3.58;;
7941;SDS011;4016;50.758;7.150;2022-08-01T10:28:13;4.32;;;3.92;;
7941;SDS011;4016;50.758;7.150;2022-08-01T10:33:16;4.47;;;4.07;;
7941;SDS011;4016;50.758;7.150;2022-08-01T10:38:17;4.45;;;3.92;;
7941;SDS011;4016;50.758;7.150;2022-08-01T10:43:18;4.25;;;3.85;;
7941;SDS011;4016;50.758;7.150;2022-08-01T10:48:20;4.22;;;3.55;;
7941;SDS011;4016;50.758;7.150;2022-08-01T10:53:27;4.10;;;3.70;;
7941;SDS011;4016;50.758;7.150;2022-08-01T10:58:38;3.95;;;3.55;;
7941;SDS011;4016;50.758;7.150;2022-08-01T11:03:42;3.95;;;3.63;;
7941;SDS011;4016;50.758;7.150;2022-08-01T11:09:04;4.07;;;3.70;;
7941;SDS011;4016;50.758;7.150;2022-08-01T11:14:11;3.90;;;3.60;;
7941;SDS011;4016;50.758;7.150;2022-08-01T11:19:12;3.72;;;3.42;;
7941;SDS011;4016;50.758;7.150;2022-08-01T11:24:13;3.70;;;3.40;;
7941;SDS011;4016;50.758;7.150;2022-08-01T11:29:14;4.63;;;3.67;;
7941;SDS011;4016;50.758;7.150;2022-08-01T11:34:16;4.07;;;3.75;;
7941;SDS011;4016;50.758;7.150;2022-08-01T11:39:17;4.40;;;3.70;;
7941;SDS011;4016;50.758;7.150;2022-08-01T11:44:19;4.03;;;3.55;;
7941;SDS011;4016;50.758;7.150;2022-08-01T11:54:38;3.53;;;3.22;;
7941;SDS011;4016;50.758;7.150;2022-08-01T11:59:53;4.18;;;3.78;;
7941;SDS011;4016;50.758;7.150;2022-08-01T12:04:58;4.00;;;3.70;;
7941;SDS011;4016;50.758;7.150;2022-08-01T12:10:05;4.63;;;3.70;;
7941;SDS011;4016;50.758;7.150;2022-08-01T12:15:08;4.78;;;3.60;;
7941;SDS011;4016;50.758;7.150;2022-08-01T12:20:10;3.85;;;3.05;;
7941;SDS011;4016;50.758;7.150;2022-08-01T12:25:15;3.90;;;3.60;;
7941;SDS011;4016;50.758;7.150;2022-08-01T12:30:17;4.00;;;3.70;;
7941;SDS011;4016;50.758;7.150;2022-08-01T12:35:26;4.18;;;3.70;;
7941;SDS011;4016;50.758;7.150;2022-08-01T12:40:34;3.83;;;3.53;;
7941;SDS011;4016;50.758;7.150;2022-08-01T12:50:49;3.85;;;3.45;;
7941;SDS011;4016;50.758;7.150;2022-08-01T12:55:53;4.05;;;3.65;;
7941;SDS011;4016;50.758;7.150;2022-08-01T13:01:02;3.80;;;3.40;;
7941;SDS011;4016;50.758;7.150;2022-08-01T13:06:10;3.97;;;3.58;;
7941;SDS011;4016;50.758;7.150;2022-08-01T13:11:14;3.65;;;3.35;;
7941;SDS011;4016;50.758;7.150;2022-08-01T13:16:22;3.78;;;3.38;;
7941;SDS011;4016;50.758;7.150;2022-08-01T13:21:26;3.05;;;2.85;;
7941;SDS011;4016;50.758;7.150;2022-08-01T13:26:37;3.05;;;2.85;;
7941;SDS011;4016;50.758;7.150;2022-08-01T13:31:37;3.58;;;3.00;;
7941;SDS011;4016;50.758;7.150;2022-08-01T13:36:39;3.42;;;3.13;;
7941;SDS011;4016;50.758;7.150;2022-08-01T13:41:40;3.53;;;3.22;;
7941;SDS011;4016;50.758;7.150;2022-08-01T13:46:41;4.88;;;3.25;;
7941;SDS011;4016;50.758;7.150;2022-08-01T13:51:42;3.80;;;3.40;;
7941;SDS011;4016;50.758;7.150;2022-08-01T13:56:43;3.65;;;3.25;;
7941;SDS011;4016;50.758;7.150;2022-08-01T14:01:43;4.07;;;3.70;;
7941;SDS011;4016;50.758;7.150;2022-08-01T14:06:44;3.50;;;3.20;;
7941;SDS011;4016;50.758;7.150;2022-08-01T14:11:45;3.92;;;3.55;;
7941;SDS011;4016;50.758;7.150;2022-08-01T14:16:46;3.50;;;3.20;;
7941;SDS011;4016;50.758;7.150;2022-08-01T14:21:46;4.35;;;2.92;;
7941;SDS011;4016;50.758;7.150;2022-08-01T14:26:46;3.35;;;3.05;;
7941;SDS011;4016;50.758;7.150;2022-08-01T14:31:47;3.15;;;2.85;;
7941;SDS011;4016;50.758;7.150;2022-08-01T14:36:47;3.28;;;2.95;;
7941;SDS011;4016;50.758;7.150;2022-08-01T14:41:48;3.40;;;3.10;;
7941;SDS011;4016;50.758;7.150;2022-08-01T14:46:48;3.00;;;2.70;;
7941;SDS011;4016;50.758;7.150;2022-08-01T14:51:49;3.10;;;2.90;;
7941;SDS011;4016;50.758;7.150;2022-08-01T14:56:50;3.17;;;2.97;;
7941;SDS011;4016;50.758;7.150;2022-08-01T15:01:52;2.80;;;2.60;;
7941;SDS011;4016;50.758;7.150;2022-08-01T15:06:53;3.30;;;3.00;;
7941;SDS011;4016;50.758;7.150;2022-08-01T15:11:53;2.60;;;2.40;;
7941;SDS011;4016;50.758;7.150;2022-08-01T15:16:53;2.40;;;2.20;;
7941;SDS011;4016;50.758;7.150;2022-08-01T15:21:54;3.20;;;3.00;;
7941;SDS011;4016;50.758;7.150;2022-08-01T15:26:54;2.83;;;2.63;;
7941;SDS011;4016;50.758;7.150;2022-08-01T15:31:54;3.10;;;2.43;;
7941;SDS011;4016;50.758;7.150;2022-08-01T15:36:55;2.95;;;2.75;;
7941;SDS011;4016;50.758;7.150;2022-08-01T15:41:59;3.83;;;2.63;;
7941;SDS011;4016;50.758;7.150;2022-08-01T15:47:02;2.75;;;2.55;;
7941;SDS011;4016;50.758;7.150;2022-08-01T15:52:03;3.67;;;2.83;;
7941;SDS011;4016;50.758;7.150;2022-08-01T15:57:04;2.50;;;2.30;;
7941;SDS011;4016;50.758;7.150;2022-08-01T16:02:05;2.38;;;2.28;;
7941;SDS011;4016;50.758;7.150;2022-08-01T16:07:05;2.60;;;2.40;;
7941;SDS011;4016;50.758;7.150;2022-08-01T16:12:07;2.80;;;2.60;;
7941;SDS011;4016;50.758;7.150;2022-08-01T16:17:08;2.67;;;2.47;;
7941;SDS011;4016;50.758;7.150;2022-08-01T16:22:09;2.90;;;2.70;;
7941;SDS011;4016;50.758;7.150;2022-08-01T16:27:09;2.53;;;2.33;;
7941;SDS011;4016;50.758;7.150;2022-08-01T16:32:10;2.80;;;2.60;;
7941;SDS011;4016;50.758;7.150;2022-08-01T16:37:10;2.60;;;2.40;;
7941;SDS011;4016;50.758;7.150;2022-08-01T16:42:10;2.38;;;2.17;;
7941;SDS011;4016;50.758;7.150;2022-08-01T16:47:12;2.67;;;2.47;;
7941;SDS011;4016;50.758;7.150;2022-08-01T16:52:12;2.35;;;2.25;;
7941;SDS011;4016;50.758;7.150;2022-08-01T16:57:13;2.80;;;2.60;;
7941;SDS011;4016;50.758;7.150;2022-08-01T17:02:13;2.70;;;2.50;;
7941;SDS011;4016;50.758;7.150;2022-08-01T17:07:13;2.90;;;2.35;;
7941;SDS011;4016;50.758;7.150;2022-08-01T17:12:14;2.53;;;2.38;;
7941;SDS011;4016;50.758;7.150;2022-08-01T17:17:14;2.38;;;2.28;;
7941;SDS011;4016;50.758;7.150;2022-08-01T17:22:15;3.30;;;2.95;;
7941;SDS011;4016;50.758;7.150;2022-08-01T17:27:15;2.50;;;2.30;;
7941;SDS011;4016;50.758;7.150;2022-08-01T17:32:16;2.53;;;2.35;;
7941;SDS011;4016;50.758;7.150;2022-08-01T17:37:16;2.55;;;2.38;;
7941;SDS011;4016;50.758;7.150;2022-08-01T17:42:17;2.80;;;2.60;;
7941;SDS011;4016;50.758;7.150;2022-08-01T17:47:17;2.88;;;2.67;;
7941;SDS011;4016;50.758;7.150;2022-08-01T17:52:18;2.47;;;2.33;;
7941;SDS011;4016;50.758;7.150;2022-08-01T17:57:19;2.80;;;2.60;;
7941;SDS011;4016;50.758;7.150;2022-08-01T18:02:19;2.85;;;2.70;;
7941;SDS011;4016;50.758;7.150;2022-08-01T18:07:20;3.25;;;2.90;;
7941;SDS011;4016;50.758;7.150;2022-08-01T18:12:21;2.40;;;2.30;;
7941;SDS011;4016;50.758;7.150;2022-08-01T18:17:21;3.65;;;3.33;;
7941;SDS011;4016;50.758;7.150;2022-08-01T18:22:22;3.25;;;3.05;;
7941;SDS011;4016;50.758;7.150;2022-08-01T18:27:22;3.10;;;2.90;;
7941;SDS011;4016;50.758;7.150;2022-08-01T18:32:23;3.30;;;3.05;;
7941;SDS011;4016;50.758;7.150;2022-08-01T18:37:23;3.60;;;3.30;;
7941;SDS011;4016;50.758;7.150;2022-08-01T18:42:24;3.40;;;3.20;;
7941;SDS011;4016;50.758;7.150;2022-08-01T18:47:24;3.83;;;3.53;;
7941;SDS011;4016;50.758;7.150;2022-08-01T18:52:25;3.22;;;3.03;;
7941;SDS011;4016;50.758;7.150;2022-08-01T18:57:28;3.25;;;3.03;;
7941;SDS011;4016;50.758;7.150;2022-08-01T19:02:28;3.60;;;3.30;;
7941;SDS011;4016;50.758;7.150;2022-08-01T19:07:28;3.58;;;3.28;;
7941;SDS011;4016;50.758;7.150;2022-08-01T19:12:29;3.42;;;3.20;;
7941;SDS011;4016;50.758;7.150;2022-08-01T19:17:29;3.30;;;3.00;;
7941;SDS011;4016;50.758;7.150;2022-08-01T19:22:29;3.67;;;3.38;;
7941;SDS011;4016;50.758;7.150;2022-08-01T19:27:30;3.45;;;3.20;;
7941;SDS011;4016;50.758;7.150;2022-08-01T19:32:33;3.40;;;3.10;;
7941;SDS011;4016;50.758;7.150;2022-08-01T19:37:35;3.13;;;2.92;;
7941;SDS011;4016;50.758;7.150;2022-08-01T19:42:42;3.53;;;3.25;;
7941;SDS011;4016;50.758;7.150;2022-08-01T19:47:43;3.60;;;3.30;;
7941;SDS011;4016;50.758;7.150;2022-08-01T19:52:44;3.50;;;3.20;;
7941;SDS011;4016;50.758;7.150;2022-08-01T19:57:46;3.53;;;3.22;;
7941;SDS011;4016;50.758;7.150;2022-08-01T20:02:48;2.92;;;2.72;;
7941;SDS011;4016;50.758;7.150;2022-08-01T20:07:52;4.65;;;2.88;;
7941;SDS011;4016;50.758;7.150;2022-08-01T20:12:52;3.70;;;3.40;;
7941;SDS011;4016;50.758;7.150;2022-08-01T20:17:56;3.25;;;2.95;;
7941;SDS011;4016;50.758;7.150;2022-08-01T20:22:57;3.10;;;2.83;;
7941;SDS011;4016;50.758;7.150;2022-08-01T20:27:58;3.45;;;3.00;;
7941;SDS011;4016;50.758;7.150;2022-08-01T20:32:59;3.58;;;3.28;;
7941;SDS011;4016;50.758;7.150;2022-08-01T20:38:00;3.15;;;2.85;;
7941;SDS011;4016;50.758;7.150;2022-08-01T20:43:00;2.92;;;2.67;;
7941;SDS011;4016;50.758;7.150;2022-08-01T20:48:02;3.45;;;3.03;;
7941;SDS011;4016;50.758;7.150;2022-08-01T20:53:06;3.28;;;3.03;;
7941;SDS011;4016;50.758;7.150;2022-08-01T20:58:06;3.03;;;2.80;;
7941;SDS011;4016;50.758;7.150;2022-08-01T21:03:18;3.28;;;3.08;;
7941;SDS011;4016;50.758;7.150;2022-08-01T21:08:22;2.78;;;2.58;;
7941;SDS011;4016;50.758;7.150;2022-08-01T21:13:36;3.20;;;2.90;;
7941;SDS011;4016;50.758;7.150;2022-08-01T21:18:50;2.80;;;2.60;;
7941;SDS011;4016;50.758;7.150;2022-08-01T21:23:59;4.07;;;3.20;;
7941;SDS011;4016;50.758;7.150;2022-08-01T21:29:04;3.60;;;3.13;;
7941;SDS011;4016;50.758;7.150;2022-08-01T21:34:05;3.30;;;3.00;;
7941;SDS011;4016;50.758;7.150;2022-08-01T21:39:07;3.78;;;3.30;;
7941;SDS011;4016;50.758;7.150;2022-08-01T21:44:07;3.38;;;3.08;;
7941;SDS011;4016;50.758;7.150;2022-08-01T21:49:13;3.80;;;3.40;;
7941;SDS011;4016;50.758;7.150;2022-08-01T21:54:23;4.32;;;3.92;;
7941;SDS011;4016;50.758;7.150;2022-08-01T21:59:31;3.70;;;3.40;;
7941;SDS011;4016;50.758;7.150;2022-08-01T22:05:10;3.85;;;3.45;;
7941;SDS011;4016;50.758;7.150;2022-08-01T22:10:12;3.67;;;3.38;;
7941;SDS011;4016;50.758;7.150;2022-08-01T22:15:17;3.60;;;3.30;;
7941;SDS011;4016;50.758;7.150;2022-08-01T22:20:19;5.97;;;3.90;;
7941;SDS011;4016;50.758;7.150;2022-08-01T22:25:21;3.55;;;3.25;;
7941;SDS011;4016;50.758;7.150;2022-08-01T22:30:23;3.63;;;3.33;;
7941;SDS011;4016;50.758;7.150;2022-08-01T22:35:24;3.45;;;3.15;;
7941;SDS011;4016;50.758;7.150;2022-08-01T22:40:24;3.33;;;3.10;;
7941;SDS011;4016;50.758;7.150;2022-08-01T22:50:52;3.55;;;3.25;;
7941;SDS011;4016;50.758;7.150;2022-08-01T22:55:56;4.05;;;3.45;;
7941;SDS011;4016;50.758;7.150;2022-08-01T23:01:01;3.40;;;3.10;;
7941;SDS011;4016;50.758;7.150;2022-08-01T23:11:27;3.20;;;3.00;;
7941;SDS011;4016;50.758;7.150;2022-08-01T23:16:28;3.50;;;2.97;;
7941;SDS011;4016;50.758;7.150;2022-08-01T23:21:30;3.40;;;3.10;;
7941;SDS011;4016;50.758;7.150;2022-08-01T23:26:31;3.20;;;2.90;;
7941;SDS011;4016;50.758;7.150;2022-08-01T23:31:32;3.37;;;3.07;;
7941;SDS011;4016;50.758;7.150;2022-08-01T23:36:33;3.83;;;3.47;;
7941;SDS011;4016;50.758;7.150;2022-08-01T23:41:35;3.20;;;2.90;;
7941;SDS011;4016;50.758;7.150;2022-08-01T23:46:35;3.40;;;3.10;;
7941;SDS011;4016;50.758;7.150;2022-08-01T23:51:36;3.07;;;2.87;;
7941;SDS011;4016;50.758;7.150;2022-08-01T23:56:36;3.20;;;2.90;;
